sensor_id;sensor_type;location;lat;lon;timestamp;pressure;altitude;pressure_sealevel;temperature;humidity
15405;BME280;7801;48.124;11.590;2022-08-21T00:01:22;95537.97;;;18.02;100.00
15405;BME280;7801;48.124;11.590;2022-08-21T00:03:49;95549.37;;;18.11;100.00
15405;BME280;7801;48.124;11.590;2022-08-21T00:06:30;95532.16;;;18.12;100.00
15405;BME280;7801;48.124;11.590;2022-08-21T00:08:56;95532.81;;;18.09;100.00
15405;BME280;7801;48.124;11.590;2022-08-21T00:11:22;95538.19;;;17.97;100.00
15405;BME280;7801;48.124;11.590;2022-08-21T00:13:47;95539.44;;;17.99;100.00
15405;BME280;7801;48.124;11.590;2022-08-21T00:16:25;95533.47;;;17.94;100.00
15405;BME280;7801;48.124;11.590;2022-08-21T00:18:50;95535.50;;;17.97;100.00
15405;BME280;7801;48.124;11.590;2022-08-21T00:21:34;95533.28;;;17.87;100.00
15405;BME280;7801;48.124;11.590;2022-08-21T00:24:01;95533.69;;;17.89;100.00
15405;BME280;7801;48.124;11.590;2022-08-21T00:26:26;95529.78;;;17.74;100.00
15405;BME280;7801;48.124;11.590;2022-08-21T00:28:52;95533.25;;;17.74;100.00
15405;BME280;7801;48.124;11.590;2022-08-21T00:31:20;95531.66;;;17.73;100.00
15405;BME280;7801;48.124;11.590;2022-08-21T00:33:46;95529.09;;;17.77;100.00
15405;BME280;7801;48.124;11.590;2022-08-21T00:36:23;95529.91;;;17.77;100.00
15405;BME280;7801;48.124;11.590;2022-08-21T00:38:48;95532.78;;;17.72;100.00
15405;BME280;7801;48.124;11.590;2022-08-21T00:41:37;95528.03;;;17.45;100.00
15405;BME280;7801;48.124;11.590;2022-08-21T00:44:03;95523.00;;;17.56;100.00
15405;BME280;7801;48.124;11.590;2022-08-21T00:46:29;95536.50;;;17.47;100.00
15405;BME280;7801;48.124;11.590;2022-08-21T00:48:55;95534.78;;;17.63;100.00
15405;BME280;7801;48.124;11.590;2022-08-21T00:51:27;95535.75;;;17.59;100.00
15405;BME280;7801;48.124;11.590;2022-08-21T00:53:56;95540.53;;;17.53;100.00
15405;BME280;7801;48.124;11.590;2022-08-21T00:56:27;95535.97;;;17.53;100.00
15405;BME280;7801;48.124;11.590;2022-08-21T00:58:56;95530.59;;;17.53;100.00
15405;BME280;7801;48.124;11.590;2022-08-21T01:01:29;95529.97;;;17.69;100.00
15405;BME280;7801;48.124;11.590;2022-08-21T01:03:54;95529.00;;;17.73;100.00
15405;BME280;7801;48.124;11.590;2022-08-21T01:06:29;95523.09;;;17.80;100.00
15405;BME280;7801;48.124;11.590;2022-08-21T01:08:54;95523.75;;;17.77;100.00
15405;BME280;7801;48.124;11.590;2022-08-21T01:11:26;95521.28;;;17.72;100.00
15405;BME280;7801;48.124;11.590;2022-08-21T01:13:52;95516.91;;;17.67;100.00
15405;BME280;7801;48.124;11.590;2022-08-21T01:16:26;95515.53;;;17.61;100.00
15405;BME280;7801;48.124;11.590;2022-08-21T01:18:52;95511.03;;;17.53;100.00
15405;BME280;7801;48.124;11.590;2022-08-21T01:21:25;95508.34;;;17.53;100.00
15405;BME280;7801;48.124;11.590;2022-08-21T01:23:53;95505.78;;;17.57;100.00
15405;BME280;7801;48.124;11.590;2022-08-21T01:26:36;95511.03;;;17.41;100.00
15405;BME280;7801;48.124;11.590;2022-08-21T01:29:14;95507.41;;;17.25;100.00
15405;BME280;7801;48.124;11.590;2022-08-21T01:31:41;95503.72;;;17.29;100.00
15405;BME280;7801;48.124;11.590;2022-08-21T01:34:07;95505.84;;;17.24;100.00
15405;BME280;7801;48.124;11.590;2022-08-21T01:36:33;95505.53;;;17.37;100.00
15405;BME280;7801;48.124;11.590;2022-08-21T01:38:59;95505.84;;;17.36;100.00
15405;BME280;7801;48.124;11.590;2022-08-21T01:41:24;95505.06;;;17.35;100.00
15405;BME280;7801;48.124;11.590;2022-08-21T01:43:49;95513.13;;;17.35;100.00
15405;BME280;7801;48.124;11.590;2022-08-21T01:46:27;95510.50;;;17.27;100.00
15405;BME280;7801;48.124;11.590;2022-08-21T01:48:52;95517.69;;;17.23;100.00
15405;BME280;7801;48.124;11.590;2022-08-21T01:51:27;95517.44;;;17.28;100.00
15405;BME280;7801;48.124;11.590;2022-08-21T01:53:52;95514.25;;;17.34;100.00
15405;BME280;7801;48.124;11.590;2022-08-21T01:56:27;95510.97;;;17.29;100.00
15405;BME280;7801;48.124;11.590;2022-08-21T01:58:53;95508.94;;;17.26;100.00
15405;BME280;7801;48.124;11.590;2022-08-21T02:01:24;95504.13;;;17.19;100.00
15405;BME280;7801;48.124;11.590;2022-08-21T02:03:49;95504.81;;;17.28;100.00
15405;BME280;7801;48.124;11.590;2022-08-21T02:06:30;95501.03;;;17.29;100.00
15405;BME280;7801;48.124;11.590;2022-08-21T02:08:56;95502.94;;;17.29;100.00
15405;BME280;7801;48.124;11.590;2022-08-21T02:11:21;95497.94;;;17.06;100.00
15405;BME280;7801;48.124;11.590;2022-08-21T02:13:46;95497.75;;;17.11;100.00
15405;BME280;7801;48.124;11.590;2022-08-21T02:16:21;95491.72;;;17.14;100.00
15405;BME280;7801;48.124;11.590;2022-08-21T02:18:46;95495.31;;;17.18;100.00
15405;BME280;7801;48.124;11.590;2022-08-21T02:21:20;95490.69;;;17.07;100.00
15405;BME280;7801;48.124;11.590;2022-08-21T02:23:46;95482.69;;;17.19;100.00
15405;BME280;7801;48.124;11.590;2022-08-21T02:26:17;95485.25;;;17.15;100.00
15405;BME280;7801;48.124;11.590;2022-08-21T02:28:42;95497.53;;;17.16;100.00
15405;BME280;7801;48.124;11.590;2022-08-21T02:31:23;95487.41;;;17.22;100.00
15405;BME280;7801;48.124;11.590;2022-08-21T02:33:49;95493.62;;;17.14;100.00
15405;BME280;7801;48.124;11.590;2022-08-21T02:36:21;95487.00;;;17.11;100.00
15405;BME280;7801;48.124;11.590;2022-08-21T02:38:46;95493.94;;;17.12;100.00
15405;BME280;7801;48.124;11.590;2022-08-21T02:41:30;95490.94;;;17.14;100.00
15405;BME280;7801;48.124;11.590;2022-08-21T02:43:55;95488.59;;;17.12;100.00
15405;BME280;7801;48.124;11.590;2022-08-21T02:46:23;95492.62;;;17.18;100.00
15405;BME280;7801;48.124;11.590;2022-08-21T02:48:49;95491.22;;;17.00;100.00
15405;BME280;7801;48.124;11.590;2022-08-21T02:51:23;95489.69;;;17.11;100.00
15405;BME280;7801;48.124;11.590;2022-08-21T02:53:52;95486.75;;;17.04;100.00
15405;BME280;7801;48.124;11.590;2022-08-21T02:56:21;95481.41;;;17.04;100.00
15405;BME280;7801;48.124;11.590;2022-08-21T02:58:49;95487.44;;;17.01;100.00
15405;BME280;7801;48.124;11.590;2022-08-21T03:01:26;95476.72;;;17.01;100.00
15405;BME280;7801;48.124;11.590;2022-08-21T03:03:51;95486.31;;;17.02;100.00
15405;BME280;7801;48.124;11.590;2022-08-21T03:06:23;95481.84;;;17.06;100.00
15405;BME280;7801;48.124;11.590;2022-08-21T03:08:49;95491.88;;;16.97;100.00
15405;BME280;7801;48.124;11.590;2022-08-21T03:11:21;95485.88;;;17.00;100.00
15405;BME280;7801;48.124;11.590;2022-08-21T03:13:46;95486.59;;;16.89;100.00
15405;BME280;7801;48.124;11.590;2022-08-21T03:16:24;95489.81;;;16.82;100.00
15405;BME280;7801;48.124;11.590;2022-08-21T03:18:49;95489.13;;;16.85;100.00
15405;BME280;7801;48.124;11.590;2022-08-21T03:21:33;95500.44;;;16.91;100.00
15405;BME280;7801;48.124;11.590;2022-08-21T03:23:58;95494.44;;;16.94;100.00
15405;BME280;7801;48.124;11.590;2022-08-21T03:26:24;95499.72;;;17.02;100.00
15405;BME280;7801;48.124;11.590;2022-08-21T03:28:49;95495.03;;;16.99;100.00
15405;BME280;7801;48.124;11.590;2022-08-21T03:31:22;95485.75;;;16.97;100.00
15405;BME280;7801;48.124;11.590;2022-08-21T03:33:48;95490.00;;;16.98;100.00
15405;BME280;7801;48.124;11.590;2022-08-21T03:36:38;95484.81;;;16.93;100.00
15405;BME280;7801;48.124;11.590;2022-08-21T03:39:03;95484.97;;;16.96;100.00
15405;BME280;7801;48.124;11.590;2022-08-21T03:41:28;95487.69;;;16.88;100.00
15405;BME280;7801;48.124;11.590;2022-08-21T03:43:54;95482.09;;;16.80;100.00
15405;BME280;7801;48.124;11.590;2022-08-21T03:46:32;95488.25;;;16.81;100.00
15405;BME280;7801;48.124;11.590;2022-08-21T03:48:57;95493.94;;;16.79;100.00
15405;BME280;7801;48.124;11.590;2022-08-21T03:51:22;95488.31;;;16.72;100.00
15405;BME280;7801;48.124;11.590;2022-08-21T03:53:48;95497.59;;;16.75;100.00
15405;BME280;7801;48.124;11.590;2022-08-21T03:56:25;95503.53;;;16.80;100.00
15405;BME280;7801;48.124;11.590;2022-08-21T03:58:51;95502.31;;;16.78;100.00
15405;BME280;7801;48.124;11.590;2022-08-21T04:01:25;95504.37;;;16.72;100.00
15405;BME280;7801;48.124;11.590;2022-08-21T04:03:50;95501.56;;;16.69;100.00
15405;BME280;7801;48.124;11.590;2022-08-21T04:06:19;95498.91;;;16.69;100.00
15405;BME280;7801;48.124;11.590;2022-08-21T04:08:44;95495.28;;;16.65;100.00
15405;BME280;7801;48.124;11.590;2022-08-21T04:11:19;95504.06;;;16.74;100.00
15405;BME280;7801;48.124;11.590;2022-08-21T04:13:45;95503.78;;;16.67;100.00
15405;BME280;7801;48.124;11.590;2022-08-21T04:16:41;95503.97;;;16.62;100.00
15405;BME280;7801;48.124;11.590;2022-08-21T04:19:07;95505.88;;;16.61;100.00
15405;BME280;7801;48.124;11.590;2022-08-21T04:21:33;95498.94;;;16.60;100.00
15405;BME280;7801;48.124;11.590;2022-08-21T04:23:59;95506.53;;;16.58;100.00
15405;BME280;7801;48.124;11.590;2022-08-21T04:26:30;95506.75;;;16.44;100.00
15405;BME280;7801;48.124;11.590;2022-08-21T04:28:57;95504.16;;;16.57;100.00
15405;BME280;7801;48.124;11.590;2022-08-21T04:31:23;95505.09;;;16.61;100.00
15405;BME280;7801;48.124;11.590;2022-08-21T04:33:49;95514.66;;;16.70;99.75
15405;BME280;7801;48.124;11.590;2022-08-21T04:36:18;95520.88;;;16.54;99.98
15405;BME280;7801;48.124;11.590;2022-08-21T04:38:43;95518.63;;;16.64;99.65
15405;BME280;7801;48.124;11.590;2022-08-21T04:41:09;95522.72;;;16.62;99.75
15405;BME280;7801;48.124;11.590;2022-08-21T04:43:34;95522.09;;;16.65;100.00
15405;BME280;7801;48.124;11.590;2022-08-21T04:46:00;95528.41;;;16.60;99.85
15405;BME280;7801;48.124;11.590;2022-08-21T04:48:26;95536.44;;;16.60;99.82
15405;BME280;7801;48.124;11.590;2022-08-21T04:50:59;95527.72;;;16.72;99.52
15405;BME280;7801;48.124;11.590;2022-08-21T04:53:45;95536.50;;;16.81;98.89
15405;BME280;7801;48.124;11.590;2022-08-21T04:56:24;95541.72;;;16.77;98.73
15405;BME280;7801;48.124;11.590;2022-08-21T04:58:53;95531.44;;;16.79;99.10
15405;BME280;7801;48.124;11.590;2022-08-21T05:01:27;95539.28;;;16.64;99.81
15405;BME280;7801;48.124;11.590;2022-08-21T05:03:56;95540.66;;;16.70;99.42
15405;BME280;7801;48.124;11.590;2022-08-21T05:06:23;95538.72;;;16.49;99.46
15405;BME280;7801;48.124;11.590;2022-08-21T05:08:51;95534.69;;;16.64;99.39
15405;BME280;7801;48.124;11.590;2022-08-21T05:11:20;95538.16;;;16.65;99.02
15405;BME280;7801;48.124;11.590;2022-08-21T05:13:47;95538.62;;;16.67;99.58
15405;BME280;7801;48.124;11.590;2022-08-21T05:16:22;95543.66;;;16.68;99.60
15405;BME280;7801;48.124;11.590;2022-08-21T05:18:47;95529.38;;;16.56;100.00
15405;BME280;7801;48.124;11.590;2022-08-21T05:24:34;95531.12;;;16.52;100.00
15405;BME280;7801;48.124;11.590;2022-08-21T05:27:00;95532.81;;;16.65;100.00
15405;BME280;7801;48.124;11.590;2022-08-21T05:29:25;95536.31;;;16.57;99.66
15405;BME280;7801;48.124;11.590;2022-08-21T05:31:53;95540.88;;;16.56;100.00
15405;BME280;7801;48.124;11.590;2022-08-21T05:34:21;95542.87;;;16.68;100.00
15405;BME280;7801;48.124;11.590;2022-08-21T05:36:47;95545.69;;;16.63;100.00
15405;BME280;7801;48.124;11.590;2022-08-21T05:39:13;95550.44;;;16.66;100.00
15405;BME280;7801;48.124;11.590;2022-08-21T05:41:38;95549.37;;;16.58;100.00
15405;BME280;7801;48.124;11.590;2022-08-21T05:44:04;95554.75;;;16.58;100.00
15405;BME280;7801;48.124;11.590;2022-08-21T05:46:29;95555.81;;;16.66;100.00
15405;BME280;7801;48.124;11.590;2022-08-21T05:48:55;95553.59;;;16.68;100.00
15405;BME280;7801;48.124;11.590;2022-08-21T05:51:20;95555.25;;;16.81;100.00
15405;BME280;7801;48.124;11.590;2022-08-21T05:53:46;95556.53;;;16.96;100.00
15405;BME280;7801;48.124;11.590;2022-08-21T05:56:21;95557.25;;;16.84;100.00
15405;BME280;7801;48.124;11.590;2022-08-21T05:58:46;95559.53;;;16.94;100.00
15405;BME280;7801;48.124;11.590;2022-08-21T06:01:21;95560.19;;;16.91;99.84
15405;BME280;7801;48.124;11.590;2022-08-21T06:03:46;95553.22;;;16.99;99.75
15405;BME280;7801;48.124;11.590;2022-08-21T06:06:23;95558.72;;;17.02;100.00
15405;BME280;7801;48.124;11.590;2022-08-21T06:08:48;95555.56;;;17.00;100.00
15405;BME280;7801;48.124;11.590;2022-08-21T06:11:17;95556.69;;;16.99;100.00
15405;BME280;7801;48.124;11.590;2022-08-21T06:13:42;95554.81;;;17.12;99.49
15405;BME280;7801;48.124;11.590;2022-08-21T06:16:17;95560.00;;;17.17;98.97
15405;BME280;7801;48.124;11.590;2022-08-21T06:18:43;95554.97;;;17.15;99.50
15405;BME280;7801;48.124;11.590;2022-08-21T06:21:19;95555.00;;;17.07;99.30
15405;BME280;7801;48.124;11.590;2022-08-21T06:23:44;95559.22;;;17.16;99.70
15405;BME280;7801;48.124;11.590;2022-08-21T06:26:19;95553.12;;;17.07;99.36
15405;BME280;7801;48.124;11.590;2022-08-21T06:28:45;95553.19;;;17.20;99.60
15405;BME280;7801;48.124;11.590;2022-08-21T06:31:27;95554.62;;;17.17;99.96
15405;BME280;7801;48.124;11.590;2022-08-21T06:33:53;95561.03;;;17.25;99.95
15405;BME280;7801;48.124;11.590;2022-08-21T06:36:22;95561.91;;;17.29;100.00
15405;BME280;7801;48.124;11.590;2022-08-21T06:38:47;95565.66;;;17.36;99.21
15405;BME280;7801;48.124;11.590;2022-08-21T06:41:19;95571.16;;;17.52;98.94
15405;BME280;7801;48.124;11.590;2022-08-21T06:43:45;95560.38;;;17.61;99.51
15405;BME280;7801;48.124;11.590;2022-08-21T06:46:10;95555.25;;;17.68;98.85
15405;BME280;7801;48.124;11.590;2022-08-21T06:48:35;95554.12;;;17.69;97.64
15405;BME280;7801;48.124;11.590;2022-08-21T06:51:01;95551.25;;;17.74;97.67
15405;BME280;7801;48.124;11.590;2022-08-21T06:53:27;95555.94;;;17.77;97.21
15405;BME280;7801;48.124;11.590;2022-08-21T06:55:53;95552.41;;;17.85;96.18
15405;BME280;7801;48.124;11.590;2022-08-21T06:58:18;95553.62;;;18.00;95.30
15405;BME280;7801;48.124;11.590;2022-08-21T07:00:47;95547.47;;;17.99;95.13
15405;BME280;7801;48.124;11.590;2022-08-21T07:03:23;95550.28;;;18.15;95.29
15405;BME280;7801;48.124;11.590;2022-08-21T07:05:49;95545.38;;;18.05;95.54
15405;BME280;7801;48.124;11.590;2022-08-21T07:08:15;95551.06;;;18.15;93.96
15405;BME280;7801;48.124;11.590;2022-08-21T07:10:41;95547.59;;;18.27;93.02
15405;BME280;7801;48.124;11.590;2022-08-21T07:13:07;95553.06;;;18.31;92.46
15405;BME280;7801;48.124;11.590;2022-08-21T07:15:32;95536.63;;;18.32;92.46
15405;BME280;7801;48.124;11.590;2022-08-21T07:17:59;95543.09;;;18.31;91.42
15405;BME280;7801;48.124;11.590;2022-08-21T07:20:25;95540.09;;;18.45;92.02
15405;BME280;7801;48.124;11.590;2022-08-21T07:22:51;95537.03;;;18.59;91.25
15405;BME280;7801;48.124;11.590;2022-08-21T07:25:16;95541.31;;;18.47;90.77
15405;BME280;7801;48.124;11.590;2022-08-21T07:27:42;95536.16;;;18.54;89.87
15405;BME280;7801;48.124;11.590;2022-08-21T07:30:07;95532.16;;;18.61;89.51
15405;BME280;7801;48.124;11.590;2022-08-21T07:32:33;95529.69;;;18.68;89.74
15405;BME280;7801;48.124;11.590;2022-08-21T07:34:58;95532.69;;;18.66;89.86
15405;BME280;7801;48.124;11.590;2022-08-21T07:37:24;95534.47;;;18.74;89.68
15405;BME280;7801;48.124;11.590;2022-08-21T07:39:49;95524.94;;;18.77;89.10
15405;BME280;7801;48.124;11.590;2022-08-21T07:45:38;95533.16;;;18.96;87.55
15405;BME280;7801;48.124;11.590;2022-08-21T07:48:04;95534.37;;;18.99;86.13
15405;BME280;7801;48.124;11.590;2022-08-21T07:50:30;95526.50;;;18.78;88.50
15405;BME280;7801;48.124;11.590;2022-08-21T07:52:55;95528.50;;;18.81;88.35
15405;BME280;7801;48.124;11.590;2022-08-21T07:55:21;95533.59;;;18.98;88.94
15405;BME280;7801;48.124;11.590;2022-08-21T07:57:47;95523.53;;;18.95;89.15
15405;BME280;7801;48.124;11.590;2022-08-21T08:00:18;95521.38;;;19.01;88.84
15405;BME280;7801;48.124;11.590;2022-08-21T08:02:46;95518.31;;;19.14;87.21
15405;BME280;7801;48.124;11.590;2022-08-21T08:05:15;95522.97;;;19.30;86.76
15405;BME280;7801;48.124;11.590;2022-08-21T08:07:41;95511.94;;;19.35;87.45
15405;BME280;7801;48.124;11.590;2022-08-21T08:10:08;95523.03;;;19.33;87.07
15405;BME280;7801;48.124;11.590;2022-08-21T08:12:35;95519.75;;;19.40;84.04
15405;BME280;7801;48.124;11.590;2022-08-21T08:15:02;95521.50;;;19.32;84.05
15405;BME280;7801;48.124;11.590;2022-08-21T08:17:27;95517.84;;;19.40;84.60
15405;BME280;7801;48.124;11.590;2022-08-21T08:19:53;95516.47;;;19.46;84.40
15405;BME280;7801;48.124;11.590;2022-08-21T08:22:22;95515.69;;;19.46;85.52
15405;BME280;7801;48.124;11.590;2022-08-21T08:24:49;95519.75;;;19.52;82.99
15405;BME280;7801;48.124;11.590;2022-08-21T08:27:15;95519.13;;;19.59;84.00
15405;BME280;7801;48.124;11.590;2022-08-21T08:29:41;95522.78;;;19.66;83.04
15405;BME280;7801;48.124;11.590;2022-08-21T08:32:06;95515.59;;;19.70;82.80
15405;BME280;7801;48.124;11.590;2022-08-21T08:34:35;95514.72;;;19.66;82.78
15405;BME280;7801;48.124;11.590;2022-08-21T08:37:02;95514.47;;;19.71;82.92
15405;BME280;7801;48.124;11.590;2022-08-21T08:39:28;95514.63;;;19.78;82.91
15405;BME280;7801;48.124;11.590;2022-08-21T08:42:11;95503.69;;;19.87;81.86
15405;BME280;7801;48.124;11.590;2022-08-21T08:44:39;95508.28;;;19.86;82.47
15405;BME280;7801;48.124;11.590;2022-08-21T08:47:05;95510.72;;;19.92;81.91
15405;BME280;7801;48.124;11.590;2022-08-21T08:49:39;95506.72;;;20.01;81.83
15405;BME280;7801;48.124;11.590;2022-08-21T08:52:18;95503.16;;;19.97;79.06
15405;BME280;7801;48.124;11.590;2022-08-21T08:54:55;95508.03;;;20.07;79.78
15405;BME280;7801;48.124;11.590;2022-08-21T08:57:22;95510.38;;;20.09;81.15
15405;BME280;7801;48.124;11.590;2022-08-21T08:59:51;95509.69;;;20.12;81.22
15405;BME280;7801;48.124;11.590;2022-08-21T09:02:18;95514.53;;;20.22;78.88
15405;BME280;7801;48.124;11.590;2022-08-21T09:04:45;95513.81;;;20.25;80.02
15405;BME280;7801;48.124;11.590;2022-08-21T09:10:24;95508.34;;;20.37;79.59
15405;BME280;7801;48.124;11.590;2022-08-21T09:13:18;95501.81;;;20.38;79.57
15405;BME280;7801;48.124;11.590;2022-08-21T09:15:57;95517.28;;;20.41;80.01
15405;BME280;7801;48.124;11.590;2022-08-21T09:24:26;95502.59;;;20.54;79.58
15405;BME280;7801;48.124;11.590;2022-08-21T09:27:02;95494.94;;;20.56;79.02
15405;BME280;7801;48.124;11.590;2022-08-21T09:29:32;95502.44;;;20.67;79.10
15405;BME280;7801;48.124;11.590;2022-08-21T09:31:58;95494.31;;;20.82;78.08
15405;BME280;7801;48.124;11.590;2022-08-21T09:34:32;95502.81;;;20.84;76.05
15405;BME280;7801;48.124;11.590;2022-08-21T09:36:58;95506.88;;;20.94;74.43
15405;BME280;7801;48.124;11.590;2022-08-21T09:39:31;95501.06;;;20.92;74.95
15405;BME280;7801;48.124;11.590;2022-08-21T09:42:02;95500.78;;;20.78;76.27
15405;BME280;7801;48.124;11.590;2022-08-21T09:44:35;95496.09;;;20.75;77.17
15405;BME280;7801;48.124;11.590;2022-08-21T09:47:06;95495.16;;;20.86;76.00
15405;BME280;7801;48.124;11.590;2022-08-21T09:49:35;95493.75;;;20.92;78.10
15405;BME280;7801;48.124;11.590;2022-08-21T09:52:04;95499.06;;;20.89;77.91
15405;BME280;7801;48.124;11.590;2022-08-21T09:54:37;95491.41;;;20.91;76.26
15405;BME280;7801;48.124;11.590;2022-08-21T09:59:54;95491.91;;;21.16;74.71
15405;BME280;7801;48.124;11.590;2022-08-21T10:02:24;95498.28;;;21.27;76.74
15405;BME280;7801;48.124;11.590;2022-08-21T10:04:52;95482.34;;;21.41;74.71
15405;BME280;7801;48.124;11.590;2022-08-21T10:07:21;95485.84;;;21.42;75.51
15405;BME280;7801;48.124;11.590;2022-08-21T10:10:02;95482.75;;;21.40;76.12
15405;BME280;7801;48.124;11.590;2022-08-21T10:15:37;95490.06;;;21.39;75.62
15405;BME280;7801;48.124;11.590;2022-08-21T10:20:41;95486.72;;;21.26;76.50
15405;BME280;7801;48.124;11.590;2022-08-21T10:31:23;95473.37;;;21.34;74.22
15405;BME280;7801;48.124;11.590;2022-08-21T10:34:17;95474.69;;;21.43;75.82
15405;BME280;7801;48.124;11.590;2022-08-21T10:39:35;95473.03;;;21.58;74.60
15405;BME280;7801;48.124;11.590;2022-08-21T10:42:46;95478.59;;;21.46;74.13
15405;BME280;7801;48.124;11.590;2022-08-21T10:45:45;95476.16;;;21.41;74.29
15405;BME280;7801;48.124;11.590;2022-08-21T10:55:59;95472.87;;;21.28;75.57
15405;BME280;7801;48.124;11.590;2022-08-21T10:58:32;95465.37;;;21.41;74.08
15405;BME280;7801;48.124;11.590;2022-08-21T11:01:06;95468.34;;;21.55;73.32
15405;BME280;7801;48.124;11.590;2022-08-21T11:03:51;95457.53;;;21.55;73.97
15405;BME280;7801;48.124;11.590;2022-08-21T11:06:23;95461.75;;;21.52;75.29
15405;BME280;7801;48.124;11.590;2022-08-21T11:08:57;95456.03;;;21.57;75.43
15405;BME280;7801;48.124;11.590;2022-08-21T11:13:59;95456.81;;;21.58;77.20
15405;BME280;7801;48.124;11.590;2022-08-21T11:16:45;95460.31;;;21.58;76.55
15405;BME280;7801;48.124;11.590;2022-08-21T11:19:19;95454.22;;;21.65;71.92
15405;BME280;7801;48.124;11.590;2022-08-21T11:24:49;95448.59;;;21.74;70.63
15405;BME280;7801;48.124;11.590;2022-08-21T11:30:06;95446.66;;;21.74;69.34
15405;BME280;7801;48.124;11.590;2022-08-21T11:32:47;95440.44;;;21.70;71.33
15405;BME280;7801;48.124;11.590;2022-08-21T11:43:48;95436.94;;;21.70;75.32
15405;BME280;7801;48.124;11.590;2022-08-21T11:46:39;95441.16;;;21.67;74.92
15405;BME280;7801;48.124;11.590;2022-08-21T11:54:16;95433.66;;;21.80;71.13
15405;BME280;7801;48.124;11.590;2022-08-21T11:56:48;95433.31;;;21.85;72.19
15405;BME280;7801;48.124;11.590;2022-08-21T11:59:45;95421.28;;;22.02;69.99
15405;BME280;7801;48.124;11.590;2022-08-21T12:02:15;95422.56;;;22.11;56.80
15405;BME280;7801;48.124;11.590;2022-08-21T12:04:45;95426.16;;;22.19;59.79
15405;BME280;7801;48.124;11.590;2022-08-21T12:07:14;95420.09;;;22.29;61.52
15405;BME280;7801;48.124;11.590;2022-08-21T12:09:40;95419.25;;;22.25;63.68
15405;BME280;7801;48.124;11.590;2022-08-21T12:12:10;95414.09;;;22.13;64.38
15405;BME280;7801;48.124;11.590;2022-08-21T12:14:45;95420.34;;;22.17;61.71
15405;BME280;7801;48.124;11.590;2022-08-21T12:17:22;95415.19;;;22.08;57.63
15405;BME280;7801;48.124;11.590;2022-08-21T12:19:59;95415.59;;;22.10;53.70
15405;BME280;7801;48.124;11.590;2022-08-21T12:22:37;95418.13;;;22.00;54.21
15405;BME280;7801;48.124;11.590;2022-08-21T12:25:07;95411.47;;;21.93;57.62
15405;BME280;7801;48.124;11.590;2022-08-21T12:27:53;95410.31;;;21.94;55.64
15405;BME280;7801;48.124;11.590;2022-08-21T12:32:58;95410.22;;;21.87;55.96
15405;BME280;7801;48.124;11.590;2022-08-21T12:35:27;95408.22;;;21.84;56.96
15405;BME280;7801;48.124;11.590;2022-08-21T12:38:01;95398.25;;;21.88;54.31
15405;BME280;7801;48.124;11.590;2022-08-21T12:40:32;95391.41;;;21.94;56.58
15405;BME280;7801;48.124;11.590;2022-08-21T12:43:03;95393.12;;;22.06;60.94
15405;BME280;7801;48.124;11.590;2022-08-21T12:45:33;95397.25;;;22.23;56.72
15405;BME280;7801;48.124;11.590;2022-08-21T12:51:21;95381.87;;;22.31;55.95
15405;BME280;7801;48.124;11.590;2022-08-21T12:53:58;95374.16;;;22.29;61.66
15405;BME280;7801;48.124;11.590;2022-08-21T12:56:26;95378.34;;;22.26;59.29
15405;BME280;7801;48.124;11.590;2022-08-21T12:58:56;95374.94;;;22.29;58.33
15405;BME280;7801;48.124;11.590;2022-08-21T13:01:34;95375.81;;;22.37;56.76
15405;BME280;7801;48.124;11.590;2022-08-21T13:04:06;95366.22;;;22.43;56.11
15405;BME280;7801;48.124;11.590;2022-08-21T13:06:38;95369.41;;;22.52;56.37
15405;BME280;7801;48.124;11.590;2022-08-21T13:09:07;95368.38;;;22.60;57.95
15405;BME280;7801;48.124;11.590;2022-08-21T13:11:34;95362.13;;;22.56;59.53
15405;BME280;7801;48.124;11.590;2022-08-21T13:14:02;95357.34;;;22.46;59.74
15405;BME280;7801;48.124;11.590;2022-08-21T13:16:29;95361.72;;;22.54;56.44
15405;BME280;7801;48.124;11.590;2022-08-21T13:18:58;95365.09;;;22.44;58.89
15405;BME280;7801;48.124;11.590;2022-08-21T13:21:33;95368.28;;;22.53;57.52
15405;BME280;7801;48.124;11.590;2022-08-21T13:24:20;95362.13;;;22.56;58.04
15405;BME280;7801;48.124;11.590;2022-08-21T13:26:46;95371.72;;;22.50;59.34
15405;BME280;7801;48.124;11.590;2022-08-21T13:29:14;95367.37;;;22.42;60.25
15405;BME280;7801;48.124;11.590;2022-08-21T13:31:56;95363.53;;;22.43;59.97
15405;BME280;7801;48.124;11.590;2022-08-21T13:34:26;95366.56;;;22.38;60.83
15405;BME280;7801;48.124;11.590;2022-08-21T13:36:59;95360.22;;;22.27;60.00
15405;BME280;7801;48.124;11.590;2022-08-21T13:39:26;95352.09;;;22.27;60.41
15405;BME280;7801;48.124;11.590;2022-08-21T13:41:55;95355.94;;;22.22;61.86
15405;BME280;7801;48.124;11.590;2022-08-21T13:44:42;95350.31;;;22.38;60.00
15405;BME280;7801;48.124;11.590;2022-08-21T13:47:11;95340.41;;;22.49;60.01
15405;BME280;7801;48.124;11.590;2022-08-21T13:49:49;95337.88;;;22.63;58.60
15405;BME280;7801;48.124;11.590;2022-08-21T13:52:22;95339.09;;;22.70;58.12
15405;BME280;7801;48.124;11.590;2022-08-21T13:54:57;95335.87;;;22.57;60.54
15405;BME280;7801;48.124;11.590;2022-08-21T13:57:33;95340.16;;;22.61;59.12
15405;BME280;7801;48.124;11.590;2022-08-21T14:02:40;95341.78;;;22.70;58.58
15405;BME280;7801;48.124;11.590;2022-08-21T14:05:06;95336.81;;;22.75;58.68
15405;BME280;7801;48.124;11.590;2022-08-21T14:07:38;95345.47;;;22.84;58.57
15405;BME280;7801;48.124;11.590;2022-08-21T14:12:40;95342.78;;;22.88;58.36
15405;BME280;7801;48.124;11.590;2022-08-21T14:15:08;95335.78;;;22.83;58.65
15405;BME280;7801;48.124;11.590;2022-08-21T14:17:36;95339.88;;;23.07;54.57
15405;BME280;7801;48.124;11.590;2022-08-21T14:20:07;95336.50;;;23.17;55.51
15405;BME280;7801;48.124;11.590;2022-08-21T14:22:47;95344.94;;;23.12;55.61
15405;BME280;7801;48.124;11.590;2022-08-21T14:25:14;95346.47;;;23.06;55.43
15405;BME280;7801;48.124;11.590;2022-08-21T14:28:24;95335.63;;;23.06;55.11